WPI YBAF-YBAF
Flight info
| Callsign | WPI |
|---|---|
| Flight time | 0h 19m |
| Altitude | 3000 |
| Route | YBAF |
| Aircraft | BE36/L-BDFGLORY/S |
Departure
| Time | 2026-04-30 10:46 |
|---|---|
| Airport | Brisbane Archerfield Airport (YBAF) |
Arrival
| Time | 2026-04-30 11:06 |
|---|---|
| Airport | Brisbane Archerfield Airport (YBAF) |
| Time | Latitude | Longitude | Altitude | Speed | Heading |
|---|---|---|---|---|---|
| 2026-04-30 10:36 | -27.57027 | 153.01228 | 52 ft | 0 kts | 190° |
| 2026-04-30 10:40 | -27.57043 | 153.01221 | 50 ft | 6 kts | 216° |
| 2026-04-30 10:40 | -27.57107 | 153.01178 | 49 ft | 16 kts | 186° |
| 2026-04-30 10:40 | -27.57176 | 153.01156 | 47 ft | 4 kts | 240° |
| 2026-04-30 10:40 | -27.57183 | 153.01124 | 46 ft | 0 kts | 255° |
| 2026-04-30 10:41 | -27.57188 | 153.01094 | 44 ft | 9 kts | 259° |
| 2026-04-30 10:41 | -27.57208 | 153.01000 | 43 ft | 15 kts | 256° |
| 2026-04-30 10:41 | -27.57228 | 153.00905 | 40 ft | 14 kts | 256° |
| 2026-04-30 10:41 | -27.57249 | 153.00776 | 39 ft | 18 kts | 285° |
| 2026-04-30 10:42 | -27.57207 | 153.00632 | 41 ft | 20 kts | 290° |
| 2026-04-30 10:42 | -27.57165 | 153.00485 | 45 ft | 20 kts | 287° |
| 2026-04-30 10:42 | -27.57117 | 153.00320 | 40 ft | 24 kts | 288° |
| 2026-04-30 10:42 | -27.57080 | 153.00192 | 40 ft | 13 kts | 288° |
| 2026-04-30 10:43 | -27.57047 | 153.00075 | 39 ft | 18 kts | 288° |
| 2026-04-30 10:43 | -27.57007 | 152.99929 | 39 ft | 21 kts | 287° |
| 2026-04-30 10:43 | -27.56965 | 152.99786 | 42 ft | 14 kts | 291° |
| 2026-04-30 10:43 | -27.56956 | 152.99760 | 43 ft | 2 kts | 301° |
| 2026-04-30 10:44 | -27.56968 | 152.99789 | 42 ft | 10 kts | 123° |
| 2026-04-30 10:44 | -27.57011 | 152.99845 | 41 ft | 0 kts | 199° |
| 2026-04-30 10:45 | -27.57045 | 152.99832 | 41 ft | 11 kts | 192° |
| 2026-04-30 10:45 | -27.57089 | 152.99915 | 41 ft | 21 kts | 109° |
| 2026-04-30 10:45 | -27.57203 | 153.00308 | 44 ft | 87 kts | 111° |
| 2026-04-30 10:45 | -27.57414 | 153.01029 | 337 ft | 102 kts | 109° |
| 2026-04-30 10:46 | -27.57618 | 153.01820 | 644 ft | 105 kts | 115° |
| 2026-04-30 10:46 | -27.58131 | 153.02385 | 940 ft | 108 kts | 157° |
| 2026-04-30 10:46 | -27.58874 | 153.02552 | 1204 ft | 111 kts | 175° |
| 2026-04-30 10:46 | -27.59656 | 153.02405 | 1449 ft | 117 kts | 191° |
| 2026-04-30 10:47 | -27.60449 | 153.02033 | 1538 ft | 131 kts | 199° |
| 2026-04-30 10:47 | -27.61294 | 153.01565 | 1637 ft | 139 kts | 202° |
| 2026-04-30 10:47 | -27.62192 | 153.01064 | 1614 ft | 146 kts | 202° |
| 2026-04-30 10:47 | -27.63119 | 153.00587 | 1575 ft | 145 kts | 194° |
| 2026-04-30 10:48 | -27.64102 | 153.00455 | 1539 ft | 144 kts | 178° |
| 2026-04-30 10:48 | -27.65092 | 153.00493 | 1497 ft | 140 kts | 173° |
| 2026-04-30 10:48 | -27.66052 | 153.00594 | 1451 ft | 138 kts | 173° |
| 2026-04-30 10:48 | -27.67012 | 153.00654 | 1410 ft | 139 kts | 176° |
| 2026-04-30 10:49 | -27.67972 | 153.00656 | 1372 ft | 137 kts | 178° |
| 2026-04-30 10:49 | -27.68937 | 153.00685 | 1313 ft | 138 kts | 176° |
| 2026-04-30 10:49 | -27.69861 | 153.00667 | 1438 ft | 131 kts | 188° |
| 2026-04-30 10:49 | -27.70700 | 153.00350 | 1760 ft | 125 kts | 202° |
| 2026-04-30 10:50 | -27.71339 | 152.99654 | 1970 ft | 136 kts | 226° |
| 2026-04-30 10:50 | -27.71906 | 152.98798 | 1971 ft | 139 kts | 227° |
| 2026-04-30 10:50 | -27.72468 | 152.97883 | 1953 ft | 144 kts | 229° |
| 2026-04-30 10:50 | -27.73010 | 152.96939 | 1954 ft | 142 kts | 231° |
| 2026-04-30 10:51 | -27.73463 | 152.95954 | 1981 ft | 143 kts | 245° |
| 2026-04-30 10:51 | -27.73448 | 152.94815 | 1941 ft | 156 kts | 292° |
| 2026-04-30 10:51 | -27.72578 | 152.94154 | 1894 ft | 156 kts | 4° |
| 2026-04-30 10:51 | -27.71735 | 152.94712 | 1904 ft | 139 kts | 60° |
| 2026-04-30 10:52 | -27.71183 | 152.95595 | 1921 ft | 138 kts | 62° |
| 2026-04-30 10:52 | -27.70552 | 152.96407 | 1925 ft | 145 kts | 35° |
| 2026-04-30 10:52 | -27.69539 | 152.96413 | 1926 ft | 157 kts | 332° |
| 2026-04-30 10:52 | -27.68984 | 152.95430 | 1907 ft | 151 kts | 266° |
| 2026-04-30 10:53 | -27.69408 | 152.94473 | 1884 ft | 134 kts | 204° |
| 2026-04-30 10:53 | -27.70240 | 152.94541 | 1857 ft | 127 kts | 140° |
| 2026-04-30 10:53 | -27.70399 | 152.95473 | 1868 ft | 138 kts | 70° |
| 2026-04-30 10:53 | -27.69585 | 152.96086 | 1858 ft | 152 kts | 13° |
| 2026-04-30 10:54 | -27.68527 | 152.96157 | 1880 ft | 153 kts | 6° |
| 2026-04-30 10:54 | -27.67457 | 152.96162 | 1910 ft | 152 kts | 2° |
| 2026-04-30 10:54 | -27.66686 | 152.95565 | 1879 ft | 146 kts | 255° |
| 2026-04-30 10:54 | -27.67205 | 152.95578 | 1846 ft | 127 kts | 81° |
| 2026-04-30 10:55 | -27.66548 | 152.95437 | 1856 ft | 136 kts | 256° |
| 2026-04-30 10:55 | -27.67041 | 152.95494 | 1746 ft | 123 kts | 104° |
| 2026-04-30 10:55 | -27.67197 | 152.96434 | 1902 ft | 115 kts | 97° |
| 2026-04-30 10:55 | -27.66920 | 152.97295 | 2000 ft | 130 kts | 58° |
| 2026-04-30 10:56 | -27.66200 | 152.97959 | 2052 ft | 140 kts | 29° |
| 2026-04-30 10:56 | -27.65193 | 152.97988 | 2075 ft | 155 kts | 346° |
| 2026-04-30 10:56 | -27.64247 | 152.97343 | 2025 ft | 165 kts | 318° |
| 2026-04-30 10:56 | -27.63423 | 152.96465 | 2028 ft | 164 kts | 314° |
| 2026-04-30 10:57 | -27.62641 | 152.95527 | 2013 ft | 162 kts | 311° |
| 2026-04-30 10:57 | -27.61904 | 152.94586 | 1966 ft | 164 kts | 309° |
| 2026-04-30 10:57 | -27.61183 | 152.93627 | 1921 ft | 153 kts | 309° |
| 2026-04-30 10:57 | -27.60576 | 152.92747 | 1920 ft | 132 kts | 300° |
| 2026-04-30 10:58 | -27.60133 | 152.91915 | 1926 ft | 116 kts | 296° |
| 2026-04-30 10:58 | -27.59760 | 152.91138 | 1942 ft | 110 kts | 292° |
| 2026-04-30 10:58 | -27.59421 | 152.90364 | 1992 ft | 108 kts | 288° |
| 2026-04-30 10:58 | -27.59345 | 152.89599 | 1958 ft | 92 kts | 231° |
| 2026-04-30 10:59 | -27.59762 | 152.89478 | 1842 ft | 65 kts | 128° |
| 2026-04-30 10:59 | -27.59535 | 152.89880 | 1767 ft | 91 kts | 9° |
| 2026-04-30 10:59 | -27.59036 | 152.89439 | 1729 ft | 102 kts | 281° |
| 2026-04-30 10:59 | -27.58862 | 152.88708 | 1833 ft | 93 kts | 275° |
| 2026-04-30 11:00 | -27.58603 | 152.88068 | 1876 ft | 96 kts | 338° |
| 2026-04-30 11:00 | -27.58156 | 152.88283 | 1936 ft | 68 kts | 102° |
| 2026-04-30 11:00 | -27.58507 | 152.88459 | 2015 ft | 76 kts | 193° |
| 2026-04-30 11:00 | -27.58991 | 152.88286 | 2169 ft | 65 kts | 179° |
| 2026-04-30 11:01 | -27.59411 | 152.88214 | 2213 ft | 59 kts | 174° |
| 2026-04-30 11:01 | -27.59849 | 152.88246 | 2164 ft | 68 kts | 166° |
| 2026-04-30 11:01 | -27.60152 | 152.88579 | 1997 ft | 79 kts | 84° |
| 2026-04-30 11:01 | -27.59656 | 152.88836 | 1930 ft | 96 kts | 340° |
| 2026-04-30 11:02 | -27.59349 | 152.88256 | 1867 ft | 92 kts | 275° |
| 2026-04-30 11:02 | -27.59306 | 152.88061 | 1864 ft | 90 kts | 274° |
| 2026-04-30 11:03 | -27.59023 | 152.87463 | 1841 ft | 92 kts | 342° |
| 2026-04-30 11:03 | -27.58548 | 152.87658 | 1855 ft | 68 kts | 92° |
| 2026-04-30 11:03 | -27.58803 | 152.87815 | 1813 ft | 84 kts | 250° |
| 2026-04-30 11:04 | -27.57983 | 152.87056 | 1762 ft | 73 kts | 200° |
| 2026-04-30 11:04 | -27.58034 | 152.87220 | 1316 ft | 96 kts | 43° |
| 2026-04-30 11:04 | -27.57588 | 152.87977 | 1484 ft | 74 kts | 91° |
| 2026-04-30 11:04 | -27.57639 | 152.88323 | 1676 ft | 64 kts | 127° |
| 2026-04-30 11:05 | -27.58166 | 152.88566 | 2027 ft | 60 kts | 160° |
| 2026-04-30 11:05 | -27.58449 | 152.88714 | 1597 ft | 64 kts | 128° |
| 2026-04-30 11:05 | -27.58735 | 152.89278 | 1697 ft | 70 kts | 123° |
| 2026-04-30 11:05 | -27.58927 | 152.89735 | 1574 ft | 64 kts | 119° |
| 2026-04-30 11:06 | -27.59091 | 152.90177 | 1448 ft | 46 kts | 120° |
| 2026-04-30 11:06 | -27.59125 | 152.90724 | 1092 ft | 83 kts | 91° |
| 2026-04-30 11:06 | -27.59124 | 152.91143 | 1262 ft | 80 kts | 101° |
| 2026-04-30 11:06 | -27.59260 | 152.91733 | 1514 ft | 76 kts | 114° |
| 2026-04-30 11:07 | -27.59407 | 152.92336 | 1601 ft | 81 kts | 109° |
| 2026-04-30 11:07 | -27.59518 | 152.92933 | 1535 ft | 74 kts | 107° |
| 2026-04-30 11:07 | -27.59636 | 152.93498 | 1528 ft | 76 kts | 110° |
| 2026-04-30 11:07 | -27.59761 | 152.94085 | 1576 ft | 78 kts | 107° |
| 2026-04-30 11:08 | -27.59894 | 152.94673 | 1616 ft | 76 kts | 117° |
| 2026-04-30 11:08 | -27.60296 | 152.95313 | 1659 ft | 77 kts | 134° |
| 2026-04-30 11:08 | -27.60540 | 152.95617 | 1653 ft | 79 kts | 135° |
| 2026-04-30 11:08 | -27.60930 | 152.96062 | 1615 ft | 81 kts | 137° |
| 2026-04-30 11:09 | -27.61349 | 152.96492 | 1583 ft | 82 kts | 141° |
| 2026-04-30 11:09 | -27.61860 | 152.96980 | 1591 ft | 108 kts | 142° |
| 2026-04-30 11:09 | -27.62501 | 152.97545 | 1614 ft | 125 kts | 143° |
| 2026-04-30 11:09 | -27.63213 | 152.98152 | 1611 ft | 135 kts | 143° |
| 2026-04-30 11:10 | -27.63988 | 152.98815 | 1578 ft | 143 kts | 143° |
| 2026-04-30 11:10 | -27.64773 | 152.99526 | 1546 ft | 147 kts | 139° |
| 2026-04-30 11:10 | -27.65516 | 153.00317 | 1530 ft | 147 kts | 136° |
| 2026-04-30 11:10 | -27.66233 | 153.01143 | 1534 ft | 146 kts | 135° |
| 2026-04-30 11:11 | -27.66934 | 153.01980 | 1520 ft | 148 kts | 134° |
| 2026-04-30 11:11 | -27.67629 | 153.02852 | 1505 ft | 150 kts | 131° |
| 2026-04-30 11:11 | -27.68271 | 153.03780 | 1488 ft | 151 kts | 128° |
| 2026-04-30 11:11 | -27.68898 | 153.04724 | 1507 ft | 149 kts | 128° |
| 2026-04-30 11:12 | -27.69446 | 153.05706 | 1543 ft | 147 kts | 120° |
| 2026-04-30 11:12 | -27.69854 | 153.06769 | 1533 ft | 148 kts | 109° |
| 2026-04-30 11:12 | -27.70017 | 153.07938 | 1472 ft | 155 kts | 96° |
| 2026-04-30 11:12 | -27.69952 | 153.09160 | 1458 ft | 157 kts | 85° |
| 2026-04-30 11:13 | -27.69726 | 153.10363 | 1511 ft | 155 kts | 79° |
| 2026-04-30 11:13 | -27.69409 | 153.11519 | 1532 ft | 156 kts | 75° |
| 2026-04-30 11:13 | -27.69048 | 153.12660 | 1549 ft | 156 kts | 75° |
| 2026-04-30 11:13 | -27.68698 | 153.13809 | 1625 ft | 153 kts | 77° |
| 2026-04-30 11:14 | -27.68315 | 153.14918 | 1715 ft | 153 kts | 73° |
| 2026-04-30 11:14 | -27.67813 | 153.16012 | 1671 ft | 161 kts | 64° |
| 2026-04-30 11:14 | -27.67072 | 153.17001 | 1555 ft | 170 kts | 46° |
| 2026-04-30 11:14 | -27.66012 | 153.17641 | 1469 ft | 177 kts | 20° |
| 2026-04-30 11:15 | -27.64796 | 153.17605 | 1394 ft | 181 kts | 342° |
| 2026-04-30 11:15 | -27.63843 | 153.16733 | 1392 ft | 173 kts | 302° |
| 2026-04-30 11:15 | -27.63353 | 153.15503 | 1376 ft | 172 kts | 285° |
| 2026-04-30 11:15 | -27.62935 | 153.14228 | 1408 ft | 174 kts | 289° |
| 2026-04-30 11:16 | -27.62322 | 153.13040 | 1546 ft | 178 kts | 310° |
| 2026-04-30 11:16 | -27.61283 | 153.12245 | 1448 ft | 185 kts | 338° |
| 2026-04-30 11:16 | -27.60081 | 153.11732 | 1375 ft | 184 kts | 344° |
| 2026-04-30 11:16 | -27.58885 | 153.11298 | 1392 ft | 179 kts | 343° |
| 2026-04-30 11:17 | -27.57753 | 153.10788 | 1520 ft | 170 kts | 334° |
| 2026-04-30 11:17 | -27.56826 | 153.09962 | 1548 ft | 173 kts | 309° |
| 2026-04-30 11:17 | -27.56214 | 153.08809 | 1520 ft | 175 kts | 286° |
| 2026-04-30 11:17 | -27.56089 | 153.07469 | 1552 ft | 171 kts | 256° |
| 2026-04-30 11:18 | -27.56403 | 153.06181 | 1587 ft | 174 kts | 245° |
| 2026-04-30 11:18 | -27.57219 | 153.03586 | 1520 ft | 172 kts | 244° |
| 2026-04-30 11:18 | -27.57244 | 153.02365 | 1404 ft | 154 kts | 290° |
| 2026-04-30 11:19 | -27.56766 | 153.01335 | 1080 ft | 141 kts | 292° |
| 2026-04-30 11:19 | -27.56484 | 153.00353 | 949 ft | 126 kts | 281° |
| 2026-04-30 11:19 | -27.56271 | 152.99466 | 846 ft | 103 kts | 282° |
| 2026-04-30 11:19 | -27.56104 | 152.98752 | 670 ft | 87 kts | 279° |
| 2026-04-30 11:20 | -27.56216 | 152.98242 | 532 ft | 66 kts | 202° |
| 2026-04-30 11:20 | -27.56690 | 152.98327 | 404 ft | 76 kts | 129° |
| 2026-04-30 11:20 | -27.56794 | 152.98936 | 229 ft | 81 kts | 114° |
| 2026-04-30 11:20 | -27.56971 | 152.99536 | 122 ft | 75 kts | 113° |
| 2026-04-30 11:21 | -27.57123 | 153.00032 | 42 ft | 55 kts | 108° |
| 2026-04-30 11:21 | -27.57218 | 153.00377 | 40 ft | 50 kts | 108° |
| 2026-04-30 11:21 | -27.57409 | 153.00990 | 126 ft | 102 kts | 117° |
| 2026-04-30 11:21 | -27.57705 | 153.01758 | 402 ft | 112 kts | 114° |
| 2026-04-30 11:22 | -27.57765 | 153.02635 | 636 ft | 119 kts | 65° |
| 2026-04-30 11:22 | -27.57026 | 153.02990 | 697 ft | 119 kts | 359° |
| 2026-04-30 11:22 | -27.56316 | 153.02791 | 880 ft | 96 kts | 298° |
| 2026-04-30 11:22 | -27.56147 | 153.02083 | 992 ft | 103 kts | 272° |
| 2026-04-30 11:23 | -27.56007 | 153.01225 | 1019 ft | 114 kts | 278° |
| 2026-04-30 11:23 | -27.55859 | 153.00337 | 1068 ft | 118 kts | 274° |
| 2026-04-30 11:23 | -27.55636 | 152.98660 | 877 ft | 103 kts | 274° |
| 2026-04-30 11:24 | -27.55581 | 152.97883 | 711 ft | 95 kts | 252° |
| 2026-04-30 11:24 | -27.56009 | 152.97511 | 570 ft | 84 kts | 181° |
| 2026-04-30 11:24 | -27.56571 | 152.97677 | 434 ft | 82 kts | 127° |
| 2026-04-30 11:25 | -27.56819 | 152.98981 | 214 ft | 87 kts | 114° |
| 2026-04-30 11:25 | -27.56996 | 152.99594 | 119 ft | 77 kts | 112° |
| 2026-04-30 11:25 | -27.57263 | 153.00530 | 41 ft | 69 kts | 108° |
| 2026-04-30 11:26 | -27.57808 | 153.02001 | 477 ft | 116 kts | 115° |
| 2026-04-30 11:26 | -27.57659 | 153.02846 | 665 ft | 128 kts | 31° |
| 2026-04-30 11:26 | -27.56814 | 153.03067 | 870 ft | 125 kts | 356° |
| 2026-04-30 11:27 | -27.56160 | 153.02544 | 977 ft | 121 kts | 290° |
| 2026-04-30 11:27 | -27.55938 | 153.01611 | 1003 ft | 126 kts | 276° |
| 2026-04-30 11:27 | -27.55806 | 153.00635 | 1069 ft | 127 kts | 272° |
| 2026-04-30 11:27 | -27.55753 | 152.99619 | 1026 ft | 126 kts | 268° |
| 2026-04-30 11:28 | -27.55670 | 152.97960 | 716 ft | 91 kts | 248° |
| 2026-04-30 11:28 | -27.56090 | 152.97778 | 515 ft | 75 kts | 148° |
| 2026-04-30 11:28 | -27.56472 | 152.98201 | 304 ft | 76 kts | 135° |
| 2026-04-30 11:29 | -27.56745 | 152.98722 | 224 ft | 81 kts | 114° |
| 2026-04-30 11:29 | -27.56904 | 152.99282 | 135 ft | 70 kts | 111° |
| 2026-04-30 11:29 | -27.57176 | 153.00227 | 39 ft | 46 kts | 108° |
| 2026-04-30 11:30 | -27.57582 | 153.01526 | 392 ft | 111 kts | 112° |
| 2026-04-30 11:30 | -27.57494 | 153.02355 | 656 ft | 122 kts | 37° |
| 2026-04-30 11:30 | -27.56640 | 153.02423 | 834 ft | 128 kts | 345° |
| 2026-04-30 11:31 | -27.56016 | 153.01778 | 1005 ft | 126 kts | 288° |
| 2026-04-30 11:31 | -27.55897 | 153.00765 | 1032 ft | 134 kts | 270° |
| 2026-04-30 11:31 | -27.55868 | 152.99698 | 1074 ft | 134 kts | 267° |
| 2026-04-30 11:31 | -27.55837 | 152.98742 | 953 ft | 113 kts | 268° |
| 2026-04-30 11:32 | -27.55887 | 152.97918 | 727 ft | 98 kts | 242° |
| 2026-04-30 11:32 | -27.56371 | 152.97521 | 569 ft | 83 kts | 177° |
| 2026-04-30 11:32 | -27.56694 | 152.97994 | 365 ft | 89 kts | 92° |
| 2026-04-30 11:33 | -27.56879 | 152.99216 | 161 ft | 78 kts | 109° |
| 2026-04-30 11:33 | -27.57056 | 152.99787 | 72 ft | 72 kts | 108° |
| 2026-04-30 11:33 | -27.57171 | 153.00211 | 39 ft | 49 kts | 107° |
| 2026-04-30 11:33 | -27.57349 | 153.00790 | 147 ft | 98 kts | 114° |
| 2026-04-30 11:34 | -27.57603 | 153.01597 | 384 ft | 117 kts | 109° |
| 2026-04-30 11:34 | -27.57477 | 153.02468 | 628 ft | 130 kts | 36° |
| 2026-04-30 11:34 | -27.56586 | 153.02645 | 850 ft | 135 kts | 345° |
| 2026-04-30 11:34 | -27.55962 | 153.01895 | 1016 ft | 134 kts | 283° |
| 2026-04-30 11:35 | -27.55831 | 153.00908 | 1007 ft | 124 kts | 271° |
| 2026-04-30 11:35 | -27.55746 | 152.99950 | 992 ft | 121 kts | 272° |
| 2026-04-30 11:35 | -27.55673 | 152.99050 | 967 ft | 106 kts | 272° |
| 2026-04-30 11:35 | -27.55563 | 152.98274 | 794 ft | 96 kts | 276° |
| 2026-04-30 11:36 | -27.55771 | 152.97680 | 580 ft | 84 kts | 199° |
| 2026-04-30 11:36 | -27.56309 | 152.97841 | 364 ft | 85 kts | 136° |
| 2026-04-30 11:36 | -27.56619 | 152.98387 | 267 ft | 80 kts | 120° |
| 2026-04-30 11:36 | -27.56816 | 152.98959 | 175 ft | 78 kts | 113° |
| 2026-04-30 11:37 | -27.56981 | 152.99543 | 97 ft | 77 kts | 112° |
| 2026-04-30 11:37 | -27.57136 | 153.00080 | 44 ft | 62 kts | 111° |
| 2026-04-30 11:37 | -27.57266 | 153.00535 | 41 ft | 83 kts | 108° |
| 2026-04-30 11:37 | -27.57500 | 153.01250 | 270 ft | 107 kts | 113° |
| 2026-04-30 11:38 | -27.57774 | 153.02092 | 530 ft | 119 kts | 110° |
| 2026-04-30 11:38 | -27.57487 | 153.02895 | 767 ft | 131 kts | 20° |
| 2026-04-30 11:38 | -27.56569 | 153.02867 | 972 ft | 137 kts | 333° |
| 2026-04-30 11:38 | -27.56042 | 153.01989 | 1001 ft | 140 kts | 282° |
| 2026-04-30 11:39 | -27.55830 | 153.00929 | 1079 ft | 139 kts | 278° |
| 2026-04-30 11:39 | -27.55639 | 152.99914 | 1054 ft | 110 kts | 280° |
| 2026-04-30 11:39 | -27.55512 | 152.99321 | 902 ft | 84 kts | 277° |
| 2026-04-30 11:39 | -27.55531 | 152.98730 | 665 ft | 73 kts | 225° |
| 2026-04-30 11:40 | -27.55968 | 152.98486 | 485 ft | 71 kts | 199° |
| 2026-04-30 11:40 | -27.56428 | 152.98420 | 355 ft | 66 kts | 158° |
| 2026-04-30 11:40 | -27.56750 | 152.98825 | 223 ft | 72 kts | 122° |
| 2026-04-30 11:40 | -27.56935 | 152.99369 | 142 ft | 75 kts | 111° |
| 2026-04-30 11:41 | -27.57076 | 152.99868 | 41 ft | 55 kts | 107° |
| 2026-04-30 11:41 | -27.57176 | 153.00221 | 39 ft | 62 kts | 108° |
| 2026-04-30 11:41 | -27.57378 | 153.00867 | 211 ft | 101 kts | 114° |
| 2026-04-30 11:41 | -27.57609 | 153.01645 | 566 ft | 113 kts | 88° |
| 2026-04-30 11:42 | -27.56931 | 153.02104 | 732 ft | 135 kts | 356° |
| 2026-04-30 11:42 | -27.56127 | 153.01721 | 932 ft | 131 kts | 298° |
| 2026-04-30 11:42 | -27.55969 | 153.00738 | 1024 ft | 126 kts | 272° |
| 2026-04-30 11:42 | -27.55815 | 152.99752 | 1005 ft | 128 kts | 279° |
| 2026-04-30 11:43 | -27.55618 | 152.98895 | 843 ft | 101 kts | 281° |
| 2026-04-30 11:43 | -27.55664 | 152.98199 | 650 ft | 84 kts | 226° |
| 2026-04-30 11:43 | -27.56142 | 152.97909 | 502 ft | 76 kts | 177° |
| 2026-04-30 11:43 | -27.56572 | 152.98241 | 355 ft | 83 kts | 126° |
| 2026-04-30 11:44 | -27.56780 | 152.98829 | 214 ft | 80 kts | 109° |
| 2026-04-30 11:44 | -27.56941 | 152.99410 | 109 ft | 75 kts | 109° |
| 2026-04-30 11:44 | -27.57097 | 152.99943 | 42 ft | 63 kts | 110° |
| 2026-04-30 11:44 | -27.57238 | 153.00443 | 53 ft | 90 kts | 111° |
| 2026-04-30 11:45 | -27.57462 | 153.01223 | 278 ft | 116 kts | 111° |
| 2026-04-30 11:45 | -27.57596 | 153.02120 | 586 ft | 120 kts | 74° |
| 2026-04-30 11:45 | -27.56934 | 153.02695 | 758 ft | 130 kts | 12° |
| 2026-04-30 11:45 | -27.56060 | 153.02508 | 932 ft | 136 kts | 316° |
| 2026-04-30 11:46 | -27.55686 | 153.01571 | 1097 ft | 135 kts | 274° |
| 2026-04-30 11:46 | -27.55578 | 153.00507 | 1089 ft | 140 kts | 274° |
| 2026-04-30 11:46 | -27.55450 | 152.99508 | 1104 ft | 114 kts | 273° |
| 2026-04-30 11:46 | -27.55380 | 152.98702 | 955 ft | 96 kts | 267° |
| 2026-04-30 11:47 | -27.55303 | 152.98001 | 838 ft | 86 kts | 274° |
| 2026-04-30 11:47 | -27.55313 | 152.97363 | 750 ft | 78 kts | 232° |
| 2026-04-30 11:47 | -27.55785 | 152.97168 | 566 ft | 81 kts | 165° |
| 2026-04-30 11:47 | -27.56229 | 152.97589 | 448 ft | 89 kts | 129° |
| 2026-04-30 11:48 | -27.56533 | 152.98126 | 324 ft | 76 kts | 121° |
| 2026-04-30 11:48 | -27.56738 | 152.98688 | 227 ft | 80 kts | 111° |
| 2026-04-30 11:48 | -27.56927 | 152.99296 | 263 ft | 90 kts | 114° |
| 2026-04-30 11:48 | -27.57155 | 153.00058 | 463 ft | 115 kts | 111° |
| 2026-04-30 11:49 | -27.57446 | 153.00972 | 712 ft | 131 kts | 112° |
| 2026-04-30 11:49 | -27.57535 | 153.01980 | 997 ft | 138 kts | 65° |
| 2026-04-30 11:49 | -27.56640 | 153.02421 | 1004 ft | 147 kts | 6° |
| 2026-04-30 11:49 | -27.55733 | 153.02000 | 1062 ft | 146 kts | 302° |
| 2026-04-30 11:50 | -27.55477 | 153.00953 | 1089 ft | 135 kts | 275° |
| 2026-04-30 11:50 | -27.55327 | 152.99948 | 1023 ft | 119 kts | 275° |
| 2026-04-30 11:50 | -27.55216 | 152.99092 | 815 ft | 103 kts | 271° |
| 2026-04-30 11:50 | -27.55381 | 152.98381 | 618 ft | 89 kts | 230° |
| 2026-04-30 11:51 | -27.55837 | 152.98014 | 503 ft | 83 kts | 200° |
| 2026-04-30 11:51 | -27.56381 | 152.97853 | 427 ft | 80 kts | 180° |
| 2026-04-30 11:51 | -27.56730 | 152.98261 | 294 ft | 91 kts | 98° |
| 2026-04-30 11:51 | -27.56816 | 152.98968 | 182 ft | 89 kts | 111° |
| 2026-04-30 11:52 | -27.56984 | 152.99555 | 75 ft | 68 kts | 112° |
| 2026-04-30 11:52 | -27.57120 | 153.00022 | 42 ft | 51 kts | 109° |
| 2026-04-30 11:52 | -27.57184 | 153.00248 | 39 ft | 53 kts | 108° |
| 2026-04-30 11:52 | -27.57366 | 153.00874 | 113 ft | 105 kts | 111° |
| 2026-04-30 11:53 | -27.57617 | 153.01728 | 330 ft | 121 kts | 110° |
| 2026-04-30 11:53 | -27.57586 | 153.02650 | 558 ft | 131 kts | 48° |
| 2026-04-30 11:53 | -27.56719 | 153.02839 | 779 ft | 133 kts | 340° |
| 2026-04-30 11:53 | -27.56106 | 153.02113 | 941 ft | 137 kts | 281° |
| 2026-04-30 11:54 | -27.55976 | 153.01062 | 1004 ft | 132 kts | 275° |
| 2026-04-30 11:54 | -27.55811 | 153.00054 | 925 ft | 129 kts | 279° |
| 2026-04-30 11:54 | -27.55637 | 152.99206 | 770 ft | 100 kts | 280° |
| 2026-04-30 11:54 | -27.55600 | 152.98481 | 637 ft | 88 kts | 243° |
| 2026-04-30 11:55 | -27.56065 | 152.98196 | 547 ft | 88 kts | 162° |
| 2026-04-30 11:55 | -27.56586 | 152.98636 | 360 ft | 95 kts | 134° |
| 2026-04-30 11:55 | -27.56886 | 152.99214 | 190 ft | 73 kts | 112° |
| 2026-04-30 11:55 | -27.57042 | 152.99752 | 67 ft | 70 kts | 113° |
| 2026-04-30 11:56 | -27.57162 | 153.00173 | 40 ft | 56 kts | 108° |
| 2026-04-30 11:56 | -27.57348 | 153.00823 | 143 ft | 106 kts | 111° |
| 2026-04-30 11:56 | -27.57605 | 153.01689 | 417 ft | 124 kts | 107° |
| 2026-04-30 11:56 | -27.57277 | 153.02577 | 661 ft | 141 kts | 30° |
| 2026-04-30 11:57 | -27.56330 | 153.02458 | 856 ft | 150 kts | 317° |
| 2026-04-30 11:57 | -27.55953 | 153.01417 | 975 ft | 145 kts | 271° |
| 2026-04-30 11:57 | -27.55902 | 153.00341 | 1024 ft | 134 kts | 270° |
| 2026-04-30 11:57 | -27.55831 | 152.99316 | 972 ft | 122 kts | 271° |
| 2026-04-30 11:58 | -27.56005 | 152.98528 | 771 ft | 95 kts | 221° |
| 2026-04-30 11:58 | -27.56577 | 152.98425 | 525 ft | 88 kts | 151° |
| 2026-04-30 11:58 | -27.56845 | 152.99032 | 234 ft | 87 kts | 108° |
| 2026-04-30 11:58 | -27.57000 | 152.99607 | 89 ft | 67 kts | 110° |
| 2026-04-30 11:59 | -27.57137 | 153.00089 | 41 ft | 52 kts | 108° |
| 2026-04-30 11:59 | -27.57227 | 153.00399 | 41 ft | 26 kts | 106° |
| 2026-04-30 11:59 | -27.57179 | 153.00470 | 44 ft | 0 kts | 17° |
| 2026-04-30 12:00 | -27.57166 | 153.00488 | 44 ft | 10 kts | 90° |
| 2026-04-30 12:00 | -27.57205 | 153.00626 | 41 ft | 25 kts | 106° |
| 2026-04-30 12:00 | -27.57246 | 153.00808 | 39 ft | 22 kts | 78° |
| 2026-04-30 12:00 | -27.57213 | 153.00974 | 43 ft | 21 kts | 76° |
| 2026-04-30 12:01 | -27.57178 | 153.01137 | 46 ft | 16 kts | 71° |
| 2026-04-30 12:01 | -27.57099 | 153.01179 | 49 ft | 13 kts | 8° |
| 2026-04-30 12:01 | -27.57058 | 153.01232 | 49 ft | 4 kts | 39° |
| 2026-04-30 12:01 | -27.57039 | 153.01222 | 49 ft | 2 kts | 230° |
| 2026-04-30 12:02 | -27.57042 | 153.01220 | 49 ft | 0 kts | 190° |